Saragosa, TX (79780)

6:40 AM CDT on September 02, 2015 (GMT -0500)
Pecos Municipal | | Change Station
CLOSE
Current Station
Airport
Location: Pecos,
Elevation: 2612 ft
Nearby Weather Stations

Elev 2612 ft 31.38 °N, 103.51 °W | Updated 25 minutes ago

Clear
Clear
68 °F
Feels Like 68 °F
N
6
Wind Variable Wind from ENE

Today
High -- | Low -- °F
--% Chance of Precip.
Yesterday
High -- | Low -- °F
Precip. -- in
7:31 AM 8:16 PM
Waning Gibbous, 81% visible
Pressure 30.03 in
Visibility 10.0 miles
Clouds Clear
Dew Point 54 °F
Humidity 60%
Rainfall 0.00 in
Snow Depth Not available.
UV 0 out of 12
Pollen 9.90 out of 12
Air Quality Not available.
Flu Activity Not available.
METAR KPEQ 021115Z AUTO 07005KT 10SM CLR 20/12 A3003 RMK AO2 T02020122
Pressure 30.03 in
Visibility 10.0 miles
Clouds Clear
Dew Point 54 °F
Humidity 60%
Rainfall 0.00 in
Snow Depth Not available.
UV 0 out of 12
Pollen 9.90 out of 12
Air Quality Not available.
Flu Activity Not available.
METAR KPEQ 021115Z AUTO 07005KT 10SM CLR 20/12 A3003 RMK AO2 T02020122

10-Day Weather Forecast

×

Almanac

Astronomy

Sep. 02, 2015 Rise Set
Actual Time
Civil Twilight
Nautical Twilight
Astronomical Twilight
Moon
Length of Visible Light
Length of Day
Tomorrow will be .
, % of the Moon is Illuminated

Today's Extremes

State Highs State Lows

Community

WunderPhotos

Upload Photos

1,851,736 photos uploaded!

WunderBlogs® & News

Nearby

Air Quality

  Air Quality AQ Index Pollutant
Not available.

Snow Depth

Station Depth Elevation

Earthquake Activity

City Distance Mag. Time & Date
Minimum magnitude displayed is 2.5.

Coastal Water Temperatures

Place Temperature

Stations

Nearby Weather Stations

Station Location Temp. Windchill Dew Point Humidity Wind Precip. Elev Updated Type